EPGD/GDN METAR and TAF weather

Enter ICAO airport designator
Station Type Date Time Source
EPGD METAR 2022/01/25 04:00 UTC NOAA

EPGD 250400Z 28013KT 5000 DZ BR OVC004 03/02 Q1024


Station Type Date Time Source
EPGD Decoded METAR 2022/01/25 04:00 UTC NOAA

Gdansk-Rebiechowo, Poland (EPGD) 54-23N 018-28E 138M
Jan 24, 2022 - 11:00 PM EST / 2022.01.25 0400 UTC
Wind: from the W (280 degrees) at 15 MPH (13 KT):0
Visibility: 3 mile(s):0
Sky conditions: overcast
Weather: drizzle; mist
Temperature: 37 F (3 C)
Dew Point: 35 F (2 C)
Relative Humidity: 93%
Pressure (altimeter): 30.24 in. Hg (1024 hPa)
ob: EPGD 250400Z 28013KT 5000 DZ BR OVC004 03/02 Q1024
cycle: 4

Station Type Date Time Source
EPGD TAF 2022/01/24 18:33 UTC NOAA

TAF TAF EPGD 241730Z 2418/2518 27010KT 9999 BKN016
TEMPO 2418/2509 29015G25KT 4000 -DZ BR BKN007 BKN013 PROB40
TEMPO 2500/2508 BKN004
TEMPO 2509/2512 SCT007 BKN013

Example: see airport list